メインページ
METAR-TAF:

METAR-TAF

空港 :

ロングイェールビーン, ノルウェー

緯度: 78-15N, 経度: 015-28E, 海抜: 2m

現時点の気象観測

当レポートは1時間14分前の02:50(UTC)に作成
東/南東の風 24kt
気温 -7°C
湿度 67%
気圧 998 hPa
視程10km以上
高度3000ftの雲はほとんどない
高度5500ftの雲は散在している

METAR: ENSB 130250Z 12024KT 9999 FEW030 SCT055 M07/M12 Q0998 RMK WIND 1400FT 12033KT

時間: 05:04 (04:04 UTC)

予報

予報は13日の 00時(UTC)から 13日の 24時(UTC)まで有効
東/南東の風 25kt
視程10km以上
高度4000ftの千切れ雲あり
13日の 00時(UTC)から 13日の 07時(UTC)まで一時的に
東/南東の風 30kt、最大45ktの突風を伴う
視程: 4000m
高度1400ftの
小雪, 高い地吹雪
13日の 08時(UTC)から 13日の 17時(UTC)まで一時的に
東/南東の風 20kt、最大35ktの突風を伴う
低い地吹雪

TAF: ENSB 1300/1324 12025KT 9999 BKN040 TEMPO 1300/1307 12030G45KT 4000 -SN BLSN VV014 TEMPO 1308/1317 12020G35KT DRSN

4,000以上の空港の気象観測と天気予報(METAR報とTAF報)

利用可能な観測所は地図上に黄色い丸と赤い丸で示す。

丸の上にカーソルを重ねると観測所名を参照できる。

次にクリックすると気象観測と天気予報を参照できる。

マップの切り替え:黒色「×」印の緑ボタンをクリックして拡大、「-」印の緑ボタンをクリックして縮小、緑色の三角印をクリックして隣りの地図に切り替え


METAR-TAF: